createdAt,value
2022-11-04T00:00:57.001Z,10.67
2022-11-04T00:06:06.476Z,10.55
2022-11-04T00:11:26.221Z,10.59
2022-11-04T00:16:43.432Z,10.58
2022-11-04T00:22:03.228Z,10.57
2022-11-04T00:27:20.574Z,10.56
2022-11-04T00:32:37.873Z,10.43
2022-11-04T00:37:46.835Z,10.39
2022-11-04T00:42:51.662Z,10.39
2022-11-04T00:47:56.400Z,10.41
2022-11-04T00:53:05.284Z,10.48
2022-11-04T00:58:10.706Z,10.48
2022-11-04T01:03:15.822Z,10.57
2022-11-04T01:08:23.193Z,10.65
2022-11-04T01:13:28.142Z,10.61
2022-11-04T01:18:32.996Z,10.65
2022-11-04T01:23:40.767Z,10.69
2022-11-04T01:28:46.698Z,10.71
2022-11-04T01:33:51.715Z,10.74
2022-11-04T01:39:00.467Z,10.75
2022-11-04T01:44:06.759Z,10.82
2022-11-04T01:49:29.094Z,10.87
2022-11-04T01:54:38.115Z,10.92
2022-11-04T01:59:44.469Z,10.97
2022-11-04T02:04:49.772Z,10.83
2022-11-04T02:09:58.145Z,10.87
2022-11-04T02:15:02.916Z,10.90
2022-11-04T02:20:23.415Z,10.90
2022-11-04T02:25:49.861Z,10.89
2022-11-04T02:31:04.379Z,10.92
2022-11-04T02:36:19.703Z,10.89
2022-11-04T02:41:38.044Z,10.91
2022-11-04T02:46:52.273Z,11.09
2022-11-04T02:52:04.744Z,11.07
2022-11-04T02:57:15.930Z,11.20
2022-11-04T03:02:30.373Z,11.17
2022-11-04T03:07:40.394Z,11.20
2022-11-04T03:12:51.163Z,11.36
2022-11-04T03:18:09.065Z,11.27
2022-11-04T03:23:14.938Z,11.41
2022-11-04T03:28:30.355Z,11.50
2022-11-04T03:33:44.209Z,11.54
2022-11-04T03:38:49.441Z,11.57
2022-11-04T03:43:54.588Z,11.61
2022-11-04T03:49:02.916Z,11.66
2022-11-04T03:54:09.488Z,11.45
2022-11-04T03:59:34.146Z,11.39
2022-11-04T04:04:47.217Z,11.53
2022-11-04T04:09:58.032Z,11.33
2022-11-04T04:15:09.672Z,11.46
2022-11-04T04:20:23.581Z,11.31
2022-11-04T04:25:44.309Z,11.29
2022-11-04T04:30:50.905Z,11.30
2022-11-04T04:36:00.353Z,11.35
2022-11-04T04:41:25.282Z,11.39
2022-11-04T04:46:34.322Z,11.54
2022-11-04T04:51:48.890Z,11.63
2022-11-04T04:56:54.132Z,11.65
2022-11-04T05:02:01.158Z,11.70
2022-11-04T05:07:10.191Z,11.78
2022-11-04T05:12:15.668Z,11.82
2022-11-04T05:17:20.671Z,11.82
2022-11-04T05:22:30.370Z,11.83
2022-11-04T05:27:36.510Z,11.81
2022-11-04T05:32:42.531Z,11.81
2022-11-04T05:37:49.997Z,11.90
2022-11-04T05:42:54.849Z,11.93
2022-11-04T05:48:04.604Z,11.96
2022-11-04T05:53:12.626Z,11.98
2022-11-04T05:58:18.010Z,11.98
2022-11-04T06:03:22.877Z,11.94
2022-11-04T06:08:31.621Z,11.99
2022-11-04T06:13:37.043Z,12.03
2022-11-04T06:18:42.857Z,11.86
2022-11-04T06:23:50.778Z,11.70
2022-11-04T06:28:55.698Z,11.94
2022-11-04T06:34:00.672Z,12.02
2022-11-04T06:39:09.618Z,12.01
2022-11-04T06:44:16.744Z,12.19
2022-11-04T06:49:25.434Z,11.90
2022-11-04T06:54:32.845Z,12.21
2022-11-04T06:59:37.904Z,12.09
2022-11-04T07:04:42.724Z,12.24
2022-11-04T07:09:52.668Z,12.44
2022-11-04T07:14:57.886Z,12.46
2022-11-04T07:20:07.098Z,12.75
2022-11-04T07:25:19.240Z,12.79
2022-11-04T07:30:24.159Z,12.71
2022-11-04T07:35:30.207Z,12.79
2022-11-04T07:40:39.565Z,12.89
2022-11-04T07:45:44.729Z,12.80
2022-11-04T07:50:49.564Z,12.81
2022-11-04T07:55:57.002Z,12.66
2022-11-04T08:01:02.720Z,12.75
2022-11-04T08:06:10.113Z,12.62
2022-11-04T08:11:21.464Z,12.70
2022-11-04T08:16:33.956Z,12.69
2022-11-04T08:21:39.375Z,12.44
2022-11-04T08:26:47.298Z,12.08
2022-11-04T08:31:52.388Z,12.29
2022-11-04T08:37:00.537Z,12.43
2022-11-04T08:42:08.376Z,12.54
2022-11-04T08:47:15.717Z,12.47
2022-11-04T08:52:24.527Z,12.31
2022-11-04T08:57:32.208Z,12.32
2022-11-04T09:02:37.110Z,12.49
2022-11-04T09:07:42.199Z,12.29
2022-11-04T09:12:51.079Z,12.10
2022-11-04T09:17:57.058Z,12.21
2022-11-04T09:23:02.441Z,12.11
2022-11-04T09:28:10.256Z,12.23
2022-11-04T09:33:15.325Z,12.11
2022-11-04T09:38:20.627Z,12.20
2022-11-04T09:43:49.766Z,12.24
2022-11-04T09:49:00.065Z,12.17
2022-11-04T09:54:11.173Z,12.19
2022-11-04T09:59:24.483Z,12.09
2022-11-04T10:04:41.424Z,12.10
2022-11-04T10:10:01.276Z,11.73
2022-11-04T10:15:36.935Z,11.52
2022-11-04T10:20:52.578Z,11.67
2022-11-04T10:26:03.703Z,11.75
2022-11-04T10:31:17.078Z,11.70
2022-11-04T10:36:22.645Z,11.60
2022-11-04T10:41:33.178Z,11.46
2022-11-04T10:46:56.323Z,11.30
2022-11-04T10:52:01.320Z,11.44
2022-11-04T10:57:06.264Z,11.26
2022-11-04T11:02:13.711Z,11.20
2022-11-04T11:07:23.676Z,11.03
2022-11-04T11:12:50.604Z,11.18
2022-11-04T11:18:03.111Z,11.06
2022-11-04T11:23:37.750Z,10.94
2022-11-04T11:28:54.425Z,10.97
2022-11-04T11:34:08.383Z,10.99
2022-11-04T11:39:22.049Z,10.87
2022-11-04T11:44:33.041Z,11.01
2022-11-04T11:49:40.605Z,10.88
2022-11-04T11:54:47.757Z,10.89
2022-11-04T12:11:04.234Z,10.73
2022-11-04T12:16:28.781Z,10.70
2022-11-04T12:21:42.092Z,10.81
2022-11-04T12:26:56.268Z,10.88
2022-11-04T12:32:11.623Z,11.00
2022-11-04T12:37:28.283Z,11.03
2022-11-04T12:42:43.237Z,11.09
2022-11-04T12:47:49.821Z,11.02
2022-11-04T12:53:19.983Z,10.74
2022-11-04T12:58:36.924Z,10.93
2022-11-04T13:03:50.483Z,10.91
2022-11-04T13:09:03.520Z,10.92
2022-11-04T13:14:13.671Z,10.83
2022-11-04T13:19:29.231Z,11.00
2022-11-04T13:24:40.994Z,10.87
2022-11-04T13:29:46.749Z,11.07
2022-11-04T13:35:00.521Z,10.66
2022-11-04T13:40:18.269Z,10.89
2022-11-04T13:45:24.947Z,11.08
2022-11-04T13:50:38.419Z,11.01
2022-11-04T13:55:56.211Z,10.91
2022-11-04T14:01:13.909Z,11.02
2022-11-04T14:06:19.225Z,10.39
2022-11-04T14:11:26.958Z,10.20
2022-11-04T14:16:47.539Z,10.28
2022-11-04T14:22:09.084Z,10.40
2022-11-04T14:27:33.628Z,10.48
2022-11-04T14:32:43.801Z,10.14
2022-11-04T14:37:56.216Z,10.13
2022-11-04T14:43:21.349Z,10.27
2022-11-04T14:48:26.565Z,10.29
2022-11-04T14:53:36.418Z,10.33
2022-11-04T14:58:57.171Z,10.42
2022-11-04T15:04:13.038Z,10.13
2022-11-04T15:09:33.274Z,10.04
2022-11-04T15:14:41.968Z,10.34
2022-11-04T15:19:52.010Z,10.10
2022-11-04T15:24:57.239Z,10.19
2022-11-04T15:30:08.261Z,9.84
2022-11-04T15:35:16.281Z,10.02
2022-11-04T15:40:21.788Z,9.84
2022-11-04T15:45:38.213Z,9.65
2022-11-04T15:50:43.381Z,9.58
2022-11-04T15:55:50.878Z,9.75
2022-11-04T16:00:59.766Z,9.72
2022-11-04T16:06:07.505Z,9.82
2022-11-04T16:11:16.842Z,9.73
2022-11-04T16:16:29.531Z,9.72
2022-11-04T16:21:38.919Z,9.60
2022-11-04T16:26:48.042Z,9.81
2022-11-04T16:32:17.562Z,9.84
2022-11-04T16:37:22.577Z,9.68
2022-11-04T16:42:27.606Z,9.99
2022-11-04T16:47:41.519Z,9.83
2022-11-04T16:52:46.855Z,9.65
2022-11-04T16:58:01.339Z,9.73
2022-11-04T17:03:22.182Z,9.69
2022-11-04T17:08:28.891Z,9.58
2022-11-04T17:13:36.513Z,9.79
2022-11-04T17:18:46.119Z,9.95
2022-11-04T17:23:52.059Z,9.80
2022-11-04T17:28:57.307Z,9.61
2022-11-04T17:34:05.904Z,9.60
2022-11-04T17:39:11.124Z,9.68
2022-11-04T17:44:15.972Z,9.53
2022-11-04T17:49:25.514Z,9.64
2022-11-04T17:54:32.859Z,9.49
2022-11-04T17:59:38.411Z,9.41
2022-11-04T18:04:48.267Z,9.34
2022-11-04T18:09:53.313Z,9.55
2022-11-04T18:15:00.295Z,9.36
2022-11-04T18:20:13.663Z,9.41
2022-11-04T18:25:19.757Z,9.40
2022-11-04T18:30:25.285Z,9.31
2022-11-04T18:35:32.589Z,9.29
2022-11-04T18:40:37.771Z,9.25
2022-11-04T18:45:43.934Z,9.30
2022-11-04T18:50:54.113Z,9.31
2022-11-04T18:56:04.913Z,9.37
2022-11-04T19:01:16.087Z,9.41
2022-11-04T19:06:26.030Z,9.43
2022-11-04T19:11:33.450Z,9.25
2022-11-04T19:16:39.020Z,9.27
2022-11-04T19:21:47.411Z,9.29
2022-11-04T19:26:52.270Z,9.40
2022-11-04T19:31:57.082Z,9.29
2022-11-04T19:37:04.630Z,9.28
2022-11-04T19:42:22.578Z,9.35
2022-11-04T19:47:27.734Z,9.22
2022-11-04T19:52:36.596Z,9.28
2022-11-04T19:57:42.563Z,9.43
2022-11-04T20:02:47.789Z,9.16
2022-11-04T20:07:55.794Z,9.18
2022-11-04T20:13:13.137Z,9.15
2022-11-04T20:18:18.231Z,9.12
2022-11-04T20:23:26.837Z,9.17
2022-11-04T20:28:31.745Z,9.31
2022-11-04T20:33:36.767Z,9.09
2022-11-04T20:38:44.658Z,9.12
2022-11-04T20:43:51.222Z,9.16
2022-11-04T20:48:56.894Z,9.14
2022-11-04T20:54:06.889Z,9.10
2022-11-04T20:59:12.434Z,9.07
2022-11-04T21:04:19.120Z,9.09
2022-11-04T21:09:26.688Z,9.03
2022-11-04T21:14:35.165Z,8.97
2022-11-04T21:19:46.726Z,9.13
2022-11-04T21:24:54.118Z,9.22
2022-11-04T21:29:58.881Z,9.24
2022-11-04T21:35:03.760Z,9.07
2022-11-04T21:40:13.131Z,9.08
2022-11-04T21:45:17.964Z,9.03
2022-11-04T21:50:22.774Z,9.15
2022-11-04T21:55:30.350Z,8.95
2022-11-04T22:00:35.440Z,9.10
2022-11-04T22:05:41.540Z,8.98
2022-11-04T22:10:50.207Z,8.97
2022-11-04T22:16:02.142Z,9.05
2022-11-04T22:21:11.303Z,8.83
2022-11-04T22:26:21.002Z,8.84
2022-11-04T22:31:27.934Z,8.92
2022-11-04T22:36:36.198Z,8.91
2022-11-04T22:41:43.854Z,8.90
2022-11-04T22:46:48.631Z,8.90
2022-11-04T22:51:53.342Z,8.86
2022-11-04T22:57:00.795Z,8.86
2022-11-04T23:02:05.656Z,8.90
2022-11-04T23:07:10.579Z,8.94
2022-11-04T23:12:30.384Z,8.96
2022-11-04T23:18:03.159Z,8.94
2022-11-04T23:23:20.352Z,9.00
2022-11-04T23:28:40.164Z,8.84
2022-11-04T23:33:57.427Z,8.90
2022-11-04T23:39:02.134Z,8.92
2022-11-04T23:44:29.918Z,8.86
2022-11-04T23:49:47.163Z,8.79
2022-11-04T23:55:04.488Z,8.88
